Time;durP1;ratioP1;P1;durP2;ratioP2;P2;SDS_P1;SDS_P2;PMS_P1;PMS_P2;Temp;Humidity;BMP_temperature;BMP_pressure;BME280_temperature;BME280_humidity;BME280_pressure;Samples;Min_cycle;Max_cycle;Signal;HPM_P1;HPM_P2
2021/09/20 00:01:41;;;;;;;3.92;3.63;;;15.40;97.30;;;;;;5014285;28;20187;-76
2021/09/20 00:04:07;;;;;;;2.92;2.72;;;15.40;97.50;;;;;;5016325;28;20268;-76
2021/09/20 00:06:32;;;;;;;2.70;2.60;;;15.40;97.50;;;;;;5015680;28;20196;-76
2021/09/20 00:08:58;;;;;;;3.05;2.85;;;15.30;97.70;;;;;;5046671;28;20192;-76
2021/09/20 00:11:24;;;;;;;4.20;3.05;;;15.30;97.90;;;;;;5012075;28;20881;-76
2021/09/20 00:13:50;;;;;;;4.72;2.88;;;15.30;97.90;;;;;;5009302;28;20213;-76
2021/09/20 00:16:16;;;;;;;4.28;2.92;;;15.30;98.40;;;;;;5019356;28;20214;-76
2021/09/20 00:18:42;;;;;;;2.80;2.67;;;15.20;98.30;;;;;;5010630;28;20636;-76
2021/09/20 00:21:08;;;;;;;3.90;3.45;;;15.20;98.40;;;;;;5012025;28;20216;-76
2021/09/20 00:23:33;;;;;;;2.45;2.35;;;15.20;98.30;;;;;;5008644;28;20212;-76
2021/09/20 00:25:59;;;;;;;3.05;2.78;;;15.20;98.30;;;;;;5014657;28;20191;-76
2021/09/20 00:28:26;;;;;;;2.95;2.75;;;15.10;98.40;;;;;;5010725;28;20180;-76
2021/09/20 00:30:51;;;;;;;2.92;2.72;;;15.10;98.30;;;;;;5011393;28;20682;-76
2021/09/20 00:33:18;;;;;;;3.38;2.72;;;15.10;98.30;;;;;;5010891;28;20189;-76
2021/09/20 00:35:44;;;;;;;2.83;2.72;;;15.10;98.50;;;;;;5007804;28;20251;-77
2021/09/20 00:38:10;;;;;;;2.92;2.78;;;15.00;98.50;;;;;;5007820;28;20572;-76
2021/09/20 00:40:36;;;;;;;5.18;3.72;;;15.00;98.50;;;;;;5009185;28;20219;-76
2021/09/20 00:43:03;;;;;;;3.25;3.05;;;15.00;98.50;;;;;;5011624;28;20224;-76
2021/09/20 00:45:29;;;;;;;3.08;2.72;;;15.00;98.50;;;;;;5011011;28;20559;-76
2021/09/20 00:47:55;;;;;;;2.50;2.40;;;15.00;98.50;;;;;;5012901;28;20246;-76
2021/09/20 00:50:20;;;;;;;3.95;3.08;;;15.00;98.50;;;;;;5041161;28;20188;-76
2021/09/20 00:52:46;;;;;;;2.80;2.63;;;15.00;98.50;;;;;;5017901;28;20173;-75
2021/09/20 00:55:13;;;;;;;2.95;2.80;;;15.00;98.50;;;;;;5011078;28;20189;-76
2021/09/20 00:57:40;;;;;;;3.42;3.08;;;14.90;98.50;;;;;;5019458;28;20176;-76
2021/09/20 01:00:08;;;;;;;3.08;2.88;;;14.90;98.50;;;;;;5011174;28;20247;-76
2021/09/20 01:02:34;;;;;;;2.90;2.70;;;14.90;98.50;;;;;;5012352;28;20617;-75
2021/09/20 01:04:59;;;;;;;3.20;3.00;;;14.90;98.50;;;;;;5015151;28;20263;-75
2021/09/20 01:07:25;;;;;;;2.88;2.60;;;14.90;98.50;;;;;;5014149;28;20181;-75
2021/09/20 01:09:52;;;;;;;6.72;3.17;;;14.90;98.50;;;;;;5009570;28;20268;-75
2021/09/20 01:12:18;;;;;;;4.32;2.80;;;14.90;98.50;;;;;;5013095;28;20589;-75
2021/09/20 01:14:44;;;;;;;3.33;2.90;;;14.80;98.50;;;;;;5011816;28;20188;-75
2021/09/20 01:17:10;;;;;;;2.63;2.53;;;14.80;98.50;;;;;;5011185;28;20188;-75
2021/09/20 01:19:36;;;;;;;2.47;2.33;;;14.80;98.50;;;;;;5012393;28;20706;-74
2021/09/20 01:22:09;;;;;;;3.53;2.80;;;14.80;98.50;;;;;;5008805;28;20935;-75
2021/09/20 01:24:37;;;;;;;3.83;2.85;;;14.80;98.50;;;;;;5013722;28;20184;-75
2021/09/20 01:27:04;;;;;;;3.15;2.65;;;14.80;98.50;;;;;;5014222;28;20185;-75
2021/09/20 01:29:30;;;;;;;2.78;2.58;;;14.80;98.50;;;;;;5017020;28;20386;-75
2021/09/20 01:31:58;;;;;;;2.63;2.53;;;14.70;98.50;;;;;;5017768;28;20219;-75
2021/09/20 01:34:27;;;;;;;2.83;2.60;;;14.70;98.50;;;;;;5011041;28;20193;-75
2021/09/20 01:36:53;;;;;;;2.70;2.55;;;14.70;98.50;;;;;;5014654;28;20181;-75
2021/09/20 01:39:24;;;;;;;4.30;2.80;;;14.70;98.50;;;;;;5013901;28;20209;-75
2021/09/20 01:41:52;;;;;;;2.97;2.75;;;14.60;98.50;;;;;;5017240;28;20181;-75
2021/09/20 01:44:18;;;;;;;2.38;2.13;;;14.60;98.50;;;;;;5010448;28;20259;-74
2021/09/20 01:46:46;;;;;;;2.28;2.15;;;14.60;98.50;;;;;;5003562;28;20739;-75
2021/09/20 01:49:12;;;;;;;2.47;2.30;;;14.50;98.50;;;;;;5009946;28;20295;-75
2021/09/20 01:51:38;;;;;;;2.70;2.60;;;14.50;98.50;;;;;;5010657;28;20188;-75
2021/09/20 01:54:05;;;;;;;3.42;2.28;;;14.50;98.50;;;;;;5000257;28;20232;-76
2021/09/20 01:56:32;;;;;;;3.90;2.42;;;14.50;98.50;;;;;;5040123;28;20185;-76
2021/09/20 01:58:59;;;;;;;2.38;1.85;;;14.50;98.50;;;;;;5006097;28;20213;-76
2021/09/20 02:01:26;;;;;;;2.33;2.22;;;14.40;98.50;;;;;;5003513;28;20188;-77
2021/09/20 02:03:52;;;;;;;2.05;1.95;;;14.40;98.50;;;;;;5009470;28;20220;-77
2021/09/20 02:06:19;;;;;;;2.85;2.53;;;14.40;98.50;;;;;;5006739;28;20181;-77
2021/09/20 02:08:45;;;;;;;2.70;2.20;;;14.40;98.50;;;;;;5003701;28;20264;-76
2021/09/20 02:11:11;;;;;;;1.80;1.77;;;14.40;98.50;;;;;;5005347;28;20200;-76
2021/09/20 02:13:37;;;;;;;2.10;2.10;;;14.30;98.50;;;;;;5009385;28;20185;-76
2021/09/20 02:16:03;;;;;;;2.10;1.92;;;14.30;98.50;;;;;;5010865;28;20180;-76
2021/09/20 02:18:29;;;;;;;1.65;1.65;;;14.30;98.50;;;;;;5009576;28;20183;-76
2021/09/20 02:20:54;;;;;;;1.95;1.85;;;14.30;98.50;;;;;;5015210;28;20208;-76
2021/09/20 02:23:20;;;;;;;2.10;2.00;;;14.30;98.50;;;;;;5006931;28;20185;-76
2021/09/20 02:25:46;;;;;;;2.47;2.05;;;14.30;98.50;;;;;;5011663;28;20177;-76
2021/09/20 02:28:13;;;;;;;1.98;1.88;;;14.30;98.50;;;;;;5008857;28;20188;-76
2021/09/20 02:30:39;;;;;;;4.32;2.35;;;14.30;98.50;;;;;;5006899;28;20308;-76
2021/09/20 02:33:05;;;;;;;1.30;1.30;;;14.30;98.50;;;;;;5010595;28;20184;-76
2021/09/20 02:35:31;;;;;;;1.75;1.58;;;14.20;98.50;;;;;;5010003;28;20188;-76
2021/09/20 02:37:57;;;;;;;2.08;1.92;;;14.30;98.50;;;;;;5010224;28;20563;-76
2021/09/20 02:40:23;;;;;;;2.28;2.17;;;14.20;98.50;;;;;;5012663;28;20216;-76
2021/09/20 02:42:49;;;;;;;2.88;2.67;;;14.30;98.50;;;;;;5004516;28;20626;-76
2021/09/20 02:45:15;;;;;;;2.22;2.13;;;14.20;98.50;;;;;;5011559;28;20187;-76
2021/09/20 02:47:42;;;;;;;2.78;1.85;;;14.20;98.50;;;;;;5009982;28;20208;-75
2021/09/20 02:50:09;;;;;;;1.98;1.90;;;14.20;98.50;;;;;;5012962;28;20197;-76
2021/09/20 02:52:35;;;;;;;4.50;2.22;;;14.20;98.50;;;;;;5010554;28;20176;-76
2021/09/20 02:55:01;;;;;;;1.90;1.75;;;14.20;98.50;;;;;;5005264;28;20222;-76
2021/09/20 02:57:26;;;;;;;4.55;1.88;;;14.20;98.50;;;;;;5012477;28;20580;-76
2021/09/20 02:59:52;;;;;;;2.78;2.65;;;14.20;98.50;;;;;;5008608;28;20215;-76
2021/09/20 03:02:19;;;;;;;1.92;1.92;;;14.10;98.50;;;;;;5005005;28;20588;-76
2021/09/20 03:04:44;;;;;;;2.30;2.10;;;14.10;98.50;;;;;;5008100;28;20200;-76
2021/09/20 03:07:10;;;;;;;4.63;3.38;;;14.10;98.50;;;;;;5006708;28;20605;-76
2021/09/20 03:09:36;;;;;;;8.50;5.57;;;14.10;98.50;;;;;;5007595;28;20196;-76
2021/09/20 03:12:02;;;;;;;12.25;7.47;;;14.20;98.50;;;;;;5009351;28;20331;-76
2021/09/20 03:14:28;;;;;;;15.05;8.48;;;14.20;98.50;;;;;;5010085;28;20192;-76
2021/09/20 03:16:54;;;;;;;10.70;7.57;;;14.20;98.50;;;;;;5017431;28;20189;-77
2021/09/20 03:19:19;;;;;;;9.68;6.95;;;14.20;98.50;;;;;;5014663;28;20679;-76
2021/09/20 03:21:45;;;;;;;5.97;5.18;;;14.30;98.50;;;;;;5013829;28;20212;-76
2021/09/20 03:24:12;;;;;;;5.55;4.13;;;14.30;98.50;;;;;;5015738;28;20972;-76
2021/09/20 03:26:40;;;;;;;4.72;3.55;;;14.30;98.50;;;;;;5014957;28;20216;-76
2021/09/20 03:29:06;;;;;;;3.55;3.17;;;14.40;98.50;;;;;;5018651;28;20184;-75
2021/09/20 03:31:32;;;;;;;2.67;2.58;;;14.40;98.50;;;;;;5016779;28;20176;-76
2021/09/20 03:33:57;;;;;;;2.78;2.58;;;14.40;98.50;;;;;;5018409;28;20181;-76
2021/09/20 03:36:23;;;;;;;2.05;2.03;;;14.40;98.50;;;;;;5016421;28;20203;-76
2021/09/20 03:38:49;;;;;;;2.38;2.28;;;14.40;98.50;;;;;;5013030;28;20192;-76
2021/09/20 03:41:15;;;;;;;8.80;2.53;;;14.40;98.50;;;;;;5013170;28;20193;-76
2021/09/20 03:43:41;;;;;;;2.90;2.70;;;14.40;98.50;;;;;;5015041;28;20189;-76
2021/09/20 03:46:07;;;;;;;2.60;2.40;;;14.40;98.50;;;;;;5012727;28;20199;-77
2021/09/20 03:48:32;;;;;;;4.60;2.90;;;14.30;98.50;;;;;;5021860;28;20838;-76
2021/09/20 03:50:58;;;;;;;4.68;2.80;;;14.30;98.50;;;;;;5013880;28;20193;-76
2021/09/20 03:53:24;;;;;;;3.05;2.55;;;14.30;98.50;;;;;;5007612;28;20185;-75
2021/09/20 03:55:49;;;;;;;2.30;2.17;;;14.30;98.50;;;;;;5016878;28;20181;-75
2021/09/20 03:58:15;;;;;;;3.72;2.47;;;14.30;98.50;;;;;;5008356;28;20196;-75
2021/09/20 04:00:41;;;;;;;3.28;2.25;;;14.40;98.50;;;;;;5013616;28;20682;-75
2021/09/20 04:03:07;;;;;;;5.20;2.63;;;14.40;98.50;;;;;;5006461;28;20188;-75
2021/09/20 04:05:33;;;;;;;2.95;2.78;;;14.40;98.50;;;;;;5011440;28;20185;-75
2021/09/20 04:07:58;;;;;;;2.28;2.17;;;14.50;98.50;;;;;;5014602;28;20180;-76
2021/09/20 04:10:24;;;;;;;5.60;2.53;;;14.50;98.50;;;;;;5041777;28;20623;-75
2021/09/20 04:12:50;;;;;;;3.78;3.15;;;14.60;98.50;;;;;;5013875;28;20216;-75
2021/09/20 04:15:15;;;;;;;3.42;3.22;;;14.60;98.50;;;;;;5010359;28;20188;-74
2021/09/20 04:17:41;;;;;;;2.95;2.75;;;14.70;98.50;;;;;;5014295;28;20193;-77
2021/09/20 04:20:08;;;;;;;4.60;3.85;;;14.70;98.50;;;;;;5009664;28;20772;-74
2021/09/20 04:22:33;;;;;;;7.18;4.00;;;14.70;98.50;;;;;;5010872;28;20254;-73
2021/09/20 04:25:03;;;;;;;4.82;4.30;;;14.80;98.50;;;;;;5010232;28;20184;-74
2021/09/20 04:27:29;;;;;;;5.13;4.00;;;14.80;98.50;;;;;;5012081;28;20260;-74
2021/09/20 04:29:54;;;;;;;4.40;3.97;;;14.80;98.50;;;;;;5016633;28;20268;-73
2021/09/20 04:32:20;;;;;;;3.45;3.08;;;14.90;98.50;;;;;;5012080;28;20190;-73
2021/09/20 04:34:46;;;;;;;7.15;2.90;;;14.90;98.50;;;;;;5008894;28;20583;-74
2021/09/20 04:37:13;;;;;;;4.72;3.72;;;14.90;98.50;;;;;;5006847;28;20204;-73
2021/09/20 04:39:40;;;;;;;3.88;3.20;;;15.00;98.50;;;;;;5008911;28;20749;-76
2021/09/20 04:42:05;;;;;;;6.05;4.38;;;15.00;98.50;;;;;;5010159;28;20655;-72
2021/09/20 04:44:31;;;;;;;5.63;4.57;;;15.00;98.50;;;;;;5011092;28;20187;-76
2021/09/20 04:46:57;;;;;;;7.45;4.78;;;15.00;98.50;;;;;;5009280;28;20195;-75
2021/09/20 04:49:23;;;;;;;8.60;5.07;;;15.00;98.50;;;;;;5011597;28;20185;-76
2021/09/20 04:51:49;;;;;;;9.43;4.75;;;15.00;98.50;;;;;;5019570;28;20181;-74
2021/09/20 04:54:14;;;;;;;4.57;4.18;;;15.00;98.50;;;;;;5009116;28;20819;-77
2021/09/20 04:56:40;;;;;;;7.05;4.32;;;15.00;98.50;;;;;;5011124;28;20641;-74
2021/09/20 04:59:06;;;;;;;5.55;4.03;;;15.00;98.50;;;;;;5007688;28;20756;-75
2021/09/20 05:01:31;;;;;;;4.43;3.85;;;15.00;98.50;;;;;;5009444;28;20252;-76
2021/09/20 05:03:57;;;;;;;4.75;4.30;;;15.00;98.50;;;;;;5005102;28;20192;-76
2021/09/20 05:06:23;;;;;;;5.75;4.78;;;15.00;98.50;;;;;;5010729;28;20246;-76
2021/09/20 05:08:48;;;;;;;6.55;4.43;;;15.00;98.50;;;;;;5010763;28;20215;-74
2021/09/20 05:11:14;;;;;;;6.20;4.60;;;15.00;98.50;;;;;;5009584;28;20640;-75
2021/09/20 05:13:40;;;;;;;6.55;4.78;;;15.10;98.50;;;;;;5011461;28;20189;-75
2021/09/20 05:16:05;;;;;;;8.15;4.40;;;15.10;98.50;;;;;;5013182;28;20185;-74
2021/09/20 05:18:31;;;;;;;4.35;3.95;;;15.20;98.50;;;;;;5013536;28;20180;-75
2021/09/20 05:20:57;;;;;;;5.25;4.28;;;15.30;98.50;;;;;;5010294;28;20788;-75
2021/09/20 05:23:22;;;;;;;4.25;3.85;;;15.30;98.50;;;;;;5008335;28;20177;-75
2021/09/20 05:25:48;;;;;;;6.68;4.15;;;15.40;98.50;;;;;;5013165;28;20569;-75
2021/09/20 05:28:14;;;;;;;6.75;5.03;;;15.40;98.50;;;;;;5012222;28;20185;-74
2021/09/20 05:30:40;;;;;;;5.75;3.97;;;15.50;98.50;;;;;;5015450;28;20927;-76
2021/09/20 05:33:05;;;;;;;6.95;4.32;;;15.60;98.50;;;;;;5014141;28;20184;-73
2021/09/20 05:35:31;;;;;;;5.45;4.95;;;15.60;98.50;;;;;;5011705;28;20207;-74
2021/09/20 05:37:57;;;;;;;6.35;4.53;;;15.70;98.50;;;;;;5010159;28;20181;-74
2021/09/20 05:40:23;;;;;;;7.22;4.47;;;15.80;98.50;;;;;;5045644;28;21214;-76
2021/09/20 05:42:55;;;;;;;5.35;4.75;;;15.90;98.50;;;;;;5004212;28;20181;-76
2021/09/20 05:45:22;;;;;;;7.22;4.55;;;16.00;98.50;;;;;;5009158;28;20188;-76
2021/09/20 05:47:50;;;;;;;6.50;4.50;;;16.10;98.50;;;;;;5014939;28;20315;-76
2021/09/20 05:50:17;;;;;;;13.13;5.88;;;16.20;98.50;;;;;;5013082;28;20565;-76
2021/09/20 05:52:43;;;;;;;8.43;5.93;;;16.40;98.20;;;;;;5018390;28;20176;-76
2021/09/20 05:55:12;;;;;;;6.55;5.93;;;16.40;98.00;;;;;;5013812;28;20243;-76
2021/09/20 05:57:38;;;;;;;11.48;5.20;;;16.50;97.50;;;;;;5013718;28;20632;-76
2021/09/20 06:00:05;;;;;;;5.22;4.75;;;16.50;97.40;;;;;;5011345;28;20212;-76
2021/09/20 06:02:31;;;;;;;9.13;6.07;;;16.50;97.30;;;;;;5010049;28;20255;-76
2021/09/20 06:04:57;;;;;;;8.00;5.60;;;16.50;97.40;;;;;;5006999;28;20272;-76
2021/09/20 06:07:22;;;;;;;5.82;4.97;;;16.50;97.10;;;;;;5005184;28;20188;-76
2021/09/20 06:09:48;;;;;;;9.63;6.35;;;16.40;97.20;;;;;;5011344;28;20229;-76
2021/09/20 06:12:14;;;;;;;6.72;6.03;;;16.50;97.40;;;;;;5003696;28;20223;-76
2021/09/20 06:14:40;;;;;;;9.57;6.15;;;16.50;97.40;;;;;;5006703;28;20271;-76
2021/09/20 06:17:05;;;;;;;11.07;6.63;;;16.60;97.30;;;;;;5011409;28;20185;-76
2021/09/20 06:19:31;;;;;;;9.43;6.07;;;16.70;97.30;;;;;;5007802;28;21009;-76
2021/09/20 06:21:57;;;;;;;9.70;6.63;;;16.70;96.90;;;;;;5009779;28;20199;-76
2021/09/20 06:24:22;;;;;;;13.85;7.53;;;16.70;96.80;;;;;;5011806;28;20200;-76
2021/09/20 06:26:48;;;;;;;14.57;7.22;;;16.80;96.60;;;;;;5006348;28;20255;-76
2021/09/20 06:29:14;;;;;;;17.92;7.20;;;16.80;96.40;;;;;;5011441;28;20189;-76
2021/09/20 06:31:40;;;;;;;12.55;7.82;;;16.70;96.30;;;;;;5010649;28;20800;-76
2021/09/20 06:34:06;;;;;;;13.18;7.00;;;16.70;96.40;;;;;;5008274;28;20185;-76
2021/09/20 06:36:32;;;;;;;12.90;7.32;;;16.70;96.00;;;;;;5009281;28;20188;-76
2021/09/20 06:38:58;;;;;;;12.55;7.25;;;16.70;96.10;;;;;;5013400;28;20177;-76
2021/09/20 06:41:25;;;;;;;9.30;7.22;;;16.80;96.20;;;;;;5010589;28;20581;-76
2021/09/20 06:43:51;;;;;;;12.30;7.38;;;16.80;96.00;;;;;;5010346;28;20188;-76
2021/09/20 06:46:16;;;;;;;12.65;6.82;;;16.80;95.90;;;;;;5010259;28;20189;-75
2021/09/20 06:48:42;;;;;;;13.68;7.82;;;16.90;95.80;;;;;;5008097;28;20185;-76
2021/09/20 06:51:08;;;;;;;9.15;7.07;;;16.90;95.80;;;;;;5009379;28;20276;-76
2021/09/20 06:53:34;;;;;;;18.35;7.82;;;16.90;95.70;;;;;;5010826;28;21040;-76
2021/09/20 06:56:00;;;;;;;10.38;6.97;;;16.90;95.50;;;;;;5008574;28;20803;-75
2021/09/20 06:58:26;;;;;;;15.48;8.30;;;16.90;95.80;;;;;;5007813;28;20184;-76
2021/09/20 07:00:51;;;;;;;16.40;7.28;;;17.00;95.30;;;;;;5010281;28;20270;-76
2021/09/20 07:03:17;;;;;;;13.73;7.18;;;16.90;95.30;;;;;;5010972;28;20189;-75
2021/09/20 07:05:43;;;;;;;6.78;5.97;;;16.90;95.40;;;;;;5008576;28;20179;-74
2021/09/20 07:08:09;;;;;;;11.02;6.45;;;16.90;95.60;;;;;;5010555;28;20678;-75
2021/09/20 07:10:35;;;;;;;11.40;6.50;;;16.90;95.60;;;;;;5012894;28;20196;-74
2021/09/20 07:13:01;;;;;;;9.93;6.20;;;17.00;95.90;;;;;;5011768;28;20267;-74
2021/09/20 07:15:26;;;;;;;7.80;6.38;;;17.10;95.70;;;;;;5011578;28;20279;-75
2021/09/20 07:17:52;;;;;;;6.18;5.53;;;17.20;95.60;;;;;;5010996;28;20193;-76
2021/09/20 07:20:18;;;;;;;10.35;6.28;;;17.30;95.60;;;;;;5008574;28;20729;-76
2021/09/20 07:22:44;;;;;;;12.77;6.57;;;17.40;94.70;;;;;;5008699;28;20271;-75
2021/09/20 07:25:12;;;;;;;11.15;6.72;;;17.50;94.80;;;;;;5013555;28;20260;-76
2021/09/20 07:27:39;;;;;;;7.72;6.93;;;17.60;94.60;;;;;;5015001;28;20238;-76
2021/09/20 07:30:06;;;;;;;8.05;7.00;;;17.70;94.50;;;;;;5012452;28;20229;-74
2021/09/20 07:32:33;;;;;;;14.75;8.07;;;17.80;94.30;;;;;;5011856;28;20185;-74
2021/09/20 07:34:58;;;;;;;12.70;8.13;;;17.90;94.20;;;;;;5011678;28;20685;-75
2021/09/20 07:37:24;;;;;;;18.90;8.30;;;17.90;93.50;;;;;;5011891;28;20177;-75
2021/09/20 07:39:50;;;;;;;9.15;7.82;;;18.00;93.70;;;;;;5011664;28;20686;-75
2021/09/20 07:42:17;;;;;;;10.05;7.18;;;18.00;93.40;;;;;;5010597;28;20227;-75
2021/09/20 07:44:42;;;;;;;10.75;7.97;;;18.10;93.00;;;;;;5011943;28;20188;-75
2021/09/20 07:47:08;;;;;;;11.73;8.32;;;18.10;93.20;;;;;;5010135;28;20199;-75
2021/09/20 07:49:34;;;;;;;8.40;7.35;;;18.30;93.10;;;;;;5015646;28;20212;-76
2021/09/20 07:52:00;;;;;;;14.40;8.30;;;18.40;92.90;;;;;;5011494;28;20195;-75
2021/09/20 07:54:25;;;;;;;10.25;7.45;;;18.60;92.80;;;;;;5012961;28;20219;-75
2021/09/20 07:56:51;;;;;;;9.63;7.63;;;18.60;92.40;;;;;;5015765;28;20222;-75
2021/09/20 07:59:17;;;;;;;12.32;7.22;;;18.80;92.00;;;;;;5015203;28;20204;-74
2021/09/20 08:01:43;;;;;;;13.13;7.80;;;18.90;91.90;;;;;;5013567;28;20184;-75
2021/09/20 08:04:09;;;;;;;10.57;6.82;;;19.10;91.20;;;;;;5016126;28;20246;-76
2021/09/20 08:06:35;;;;;;;11.50;7.93;;;19.20;91.10;;;;;;5015435;28;20278;-75
2021/09/20 08:09:01;;;;;;;11.93;6.72;;;19.30;90.90;;;;;;5016265;28;20192;-75
2021/09/20 08:11:28;;;;;;;15.70;6.57;;;19.30;90.40;;;;;;5014987;28;20224;-75
2021/09/20 08:13:54;;;;;;;12.05;6.93;;;19.40;90.20;;;;;;5014339;28;20185;-75
2021/09/20 08:16:19;;;;;;;7.63;6.00;;;19.50;90.20;;;;;;5016602;28;20181;-76
2021/09/20 08:18:45;;;;;;;10.57;6.13;;;19.60;90.30;;;;;;5013060;28;20688;-75
2021/09/20 08:21:11;;;;;;;11.05;6.13;;;19.70;90.10;;;;;;5014492;28;20193;-75
2021/09/20 08:23:37;;;;;;;9.40;7.00;;;19.90;89.70;;;;;;5012684;28;20242;-74
2021/09/20 08:26:05;;;;;;;11.27;7.93;;;20.00;89.20;;;;;;5015510;28;20189;-74
2021/09/20 08:28:32;;;;;;;11.10;7.85;;;20.10;87.90;;;;;;5015614;28;20181;-74
2021/09/20 08:30:58;;;;;;;21.05;7.85;;;20.10;87.40;;;;;;5013172;28;20196;-74
2021/09/20 08:33:24;;;;;;;11.98;6.30;;;20.20;88.20;;;;;;5014283;28;20184;-74
2021/09/20 08:35:50;;;;;;;11.75;7.57;;;20.30;88.50;;;;;;5016301;28;20184;-74
2021/09/20 08:38:15;;;;;;;11.93;7.75;;;20.40;87.00;;;;;;5015171;28;20182;-75
2021/09/20 08:40:41;;;;;;;10.25;7.90;;;20.40;87.00;;;;;;5014818;28;20216;-75
2021/09/20 08:43:07;;;;;;;11.25;7.57;;;20.40;86.60;;;;;;5015726;28;20191;-74
2021/09/20 08:45:32;;;;;;;13.98;7.53;;;20.30;86.10;;;;;;5016151;28;20579;-74
2021/09/20 08:48:00;;;;;;;17.30;7.18;;;20.20;86.50;;;;;;5013237;28;20863;-74
2021/09/20 08:50:32;;;;;;;10.48;7.45;;;20.10;87.20;;;;;;5014605;28;20267;-75
2021/09/20 08:52:58;;;;;;;11.60;7.80;;;20.10;87.40;;;;;;5016417;28;20266;-75
2021/09/20 08:55:24;;;;;;;11.50;7.72;;;20.20;87.50;;;;;;5014821;28;20229;-75
2021/09/20 08:57:50;;;;;;;10.95;7.97;;;20.40;87.10;;;;;;5014712;28;20189;-76
2021/09/20 09:00:16;;;;;;;12.02;8.10;;;20.60;87.10;;;;;;5014377;28;20212;-75
2021/09/20 09:02:42;;;;;;;12.13;7.30;;;21.10;86.10;;;;;;5014735;28;20743;-75
2021/09/20 09:05:13;;;;;;;11.48;8.48;;;21.60;84.60;;;;;;5014542;28;20293;-75
2021/09/20 09:08:06;;;;;;;11.55;6.57;;;22.40;82.60;;;;;;5012032;28;20188;-74
2021/09/20 09:10:37;;;;;;;10.48;7.55;;;23.30;82.20;;;;;;5022898;28;20208;-74
2021/09/20 09:13:05;;;;;;;17.25;7.80;;;24.30;81.70;;;;;;5015138;28;20233;-75
2021/09/20 09:15:32;;;;;;;8.88;7.00;;;25.30;77.40;;;;;;4999176;28;20193;-75
2021/09/20 09:17:58;;;;;;;11.55;7.35;;;25.90;76.10;;;;;;5001309;28;20189;-75
2021/09/20 09:20:31;;;;;;;13.13;7.25;;;26.60;75.30;;;;;;5002141;28;20216;-75
2021/09/20 09:23:05;;;;;;;10.20;6.90;;;27.30;74.00;;;;;;5003221;28;20255;-74
2021/09/20 09:25:47;;;;;;;7.22;6.30;;;28.20;73.60;;;;;;5003476;28;20795;-75
2021/09/20 09:28:15;;;;;;;7.75;6.80;;;29.20;72.80;;;;;;5002773;28;20326;-73
2021/09/20 09:30:47;;;;;;;7.95;6.53;;;30.10;69.70;;;;;;5003800;28;20193;-75
2021/09/20 09:33:24;;;;;;;11.02;6.25;;;30.70;69.10;;;;;;5003928;28;20189;-75
2021/09/20 09:35:54;;;;;;;11.13;7.03;;;31.20;66.40;;;;;;5002402;28;20288;-75
2021/09/20 09:38:21;;;;;;;7.78;5.57;;;31.60;65.50;;;;;;5003171;28;20696;-75
2021/09/20 09:40:58;;;;;;;5.43;4.90;;;32.10;65.00;;;;;;5003077;28;20231;-75
2021/09/20 09:43:30;;;;;;;5.70;5.25;;;32.80;64.60;;;;;;5002288;28;20184;-73
2021/09/20 09:46:00;;;;;;;5.43;5.00;;;33.60;63.70;;;;;;5000162;28;20708;-75
2021/09/20 09:48:31;;;;;;;5.20;4.80;;;34.20;61.10;;;;;;4993617;28;20221;-75
2021/09/20 09:51:00;;;;;;;3.78;3.58;;;34.70;61.20;;;;;;4988737;28;20269;-75
2021/09/20 09:53:35;;;;;;;6.40;4.55;;;35.30;59.00;;;;;;4996567;28;20205;-75
2021/09/20 09:56:26;;;;;;;4.90;4.60;;;35.80;58.50;;;;;;4991521;28;20195;-75
2021/09/20 09:58:53;;;;;;;5.53;4.10;;;36.20;56.60;;;;;;5027331;28;20185;-75
2021/09/20 10:01:27;;;;;;;3.55;3.38;;;36.60;57.00;;;;;;4992524;28;20177;-75
2021/09/20 10:04:13;;;;;;;5.30;3.78;;;37.00;58.60;;;;;;4994730;28;20584;-75
2021/09/20 10:06:41;;;;;;;7.55;4.30;;;37.30;55.10;;;;;;4994363;28;20189;-75
2021/09/20 10:09:13;;;;;;;4.65;4.40;;;37.80;55.40;;;;;;5027096;28;20192;-75
2021/09/20 10:11:42;;;;;;;5.00;4.18;;;38.20;54.10;;;;;;4993304;28;20197;-75
2021/09/20 10:14:09;;;;;;;3.92;3.67;;;38.40;56.50;;;;;;4990348;28;20192;-75
2021/09/20 10:16:36;;;;;;;5.40;4.90;;;38.80;55.70;;;;;;4994906;28;20255;-75
2021/09/20 10:19:03;;;;;;;4.22;3.53;;;39.00;52.80;;;;;;4992614;28;20188;-75
2021/09/20 10:21:30;;;;;;;5.07;4.57;;;39.00;52.90;;;;;;4993141;28;20193;-75
2021/09/20 10:23:58;;;;;;;6.22;4.55;;;39.00;52.40;;;;;;4994552;28;20181;-75
2021/09/20 10:26:24;;;;;;;6.82;4.38;;;38.80;51.90;;;;;;4989870;28;20235;-74
2021/09/20 10:28:53;;;;;;;4.28;3.97;;;38.40;53.70;;;;;;4994202;28;20196;-76
2021/09/20 10:31:21;;;;;;;4.97;4.32;;;38.30;54.30;;;;;;4992246;28;20254;-75
2021/09/20 10:33:47;;;;;;;10.05;3.78;;;38.60;54.10;;;;;;4994500;28;20187;-75
2021/09/20 10:36:13;;;;;;;3.97;3.53;;;38.70;51.40;;;;;;4989754;28;20777;-75
2021/09/20 10:38:52;;;;;;;8.38;2.83;;;38.60;53.60;;;;;;4991146;28;20287;-75
2021/09/20 10:41:20;;;;;;;5.10;3.50;;;38.70;50.90;;;;;;4993815;28;20590;-75
2021/09/20 10:44:05;;;;;;;2.97;2.78;;;38.70;54.00;;;;;;4993493;28;20284;-75
2021/09/20 10:46:33;;;;;;;5.05;3.10;;;39.00;51.70;;;;;;4988601;28;20272;-75
2021/09/20 10:49:02;;;;;;;3.03;2.92;;;39.20;51.90;;;;;;4992582;28;20571;-75
2021/09/20 10:51:39;;;;;;;5.50;3.40;;;39.40;50.40;;;;;;4991554;28;20265;-75
2021/09/20 10:54:21;;;;;;;3.47;3.22;;;39.70;53.00;;;;;;5027169;28;20185;-75
2021/09/20 10:56:55;;;;;;;7.30;3.35;;;39.80;49.80;;;;;;4997476;28;20258;-75
2021/09/20 10:59:26;;;;;;;2.85;2.60;;;39.90;50.70;;;;;;4990111;28;20240;-75
2021/09/20 11:01:57;;;;;;;3.55;3.20;;;40.20;51.70;;;;;;4990474;28;20649;-75
2021/09/20 11:04:28;;;;;;;7.85;2.97;;;40.50;52.40;;;;;;4990942;28;20239;-76
2021/09/20 11:07:06;;;;;;;5.25;2.88;;;40.90;49.80;;;;;;4992140;28;20184;-75
2021/09/20 11:10:01;;;;;;;5.15;2.70;;;41.20;48.10;;;;;;4993221;28;20379;-75
2021/09/20 11:12:27;;;;;;;3.63;3.05;;;41.20;51.10;;;;;;4988909;28;20236;-75
2021/09/20 11:14:58;;;;;;;3.25;2.83;;;41.30;52.10;;;;;;4994281;28;20231;-75
2021/09/20 11:17:41;;;;;;;3.70;3.35;;;41.30;51.30;;;;;;4994585;28;20201;-75
2021/09/20 11:20:25;;;;;;;3.03;2.92;;;41.40;48.90;;;;;;4991643;28;20220;-74
2021/09/20 11:23:10;;;;;;;5.30;2.90;;;41.40;48.10;;;;;;4991747;28;20280;-73
2021/09/20 11:25:36;;;;;;;3.15;2.92;;;41.40;50.30;;;;;;4990529;28;20188;-75
2021/09/20 11:28:01;;;;;;;7.20;2.95;;;41.40;51.00;;;;;;4991624;28;20268;-75
2021/09/20 11:30:27;;;;;;;6.20;3.00;;;41.20;50.20;;;;;;4990948;28;20634;-74
2021/09/20 11:32:55;;;;;;;4.82;3.00;;;41.20;52.20;;;;;;4993549;28;20227;-75
2021/09/20 11:35:26;;;;;;;4.03;2.78;;;41.30;51.40;;;;;;5011644;28;20189;-74
2021/09/20 11:37:54;;;;;;;5.88;3.00;;;41.50;50.50;;;;;;4997150;28;20189;-76
2021/09/20 11:40:22;;;;;;;5.70;3.08;;;41.50;50.20;;;;;;4991217;28;20216;-74
2021/09/20 11:42:50;;;;;;;6.82;3.00;;;41.20;49.60;;;;;;4993700;28;20247;-75
2021/09/20 11:45:22;;;;;;;6.38;3.60;;;41.10;50.90;;;;;;4997390;28;20247;-74
2021/09/20 11:47:51;;;;;;;3.50;2.42;;;41.10;50.50;;;;;;4988733;28;20197;-74
2021/09/20 11:50:18;;;;;;;3.65;3.40;;;40.90;51.50;;;;;;4996486;28;20287;-74
2021/09/20 11:52:51;;;;;;;5.38;3.15;;;40.90;50.80;;;;;;4991187;28;20188;-73
2021/09/20 11:55:22;;;;;;;3.42;2.33;;;40.60;46.30;;;;;;4991656;28;20185;-74
2021/09/20 11:58:00;;;;;;;4.25;1.88;;;40.00;48.40;;;;;;4992319;28;20217;-75
2021/09/20 12:00:29;;;;;;;5.13;1.92;;;39.30;47.60;;;;;;4992803;28;20226;-75
2021/09/20 12:02:57;;;;;;;2.55;1.83;;;38.60;46.50;;;;;;4996220;28;20565;-74
2021/09/20 12:05:25;;;;;;;5.05;1.80;;;37.70;50.20;;;;;;4994117;28;20189;-74
2021/09/20 12:08:04;;;;;;;1.75;1.65;;;37.10;52.60;;;;;;4995788;28;20184;-74
2021/09/20 12:10:31;;;;;;;4.25;1.98;;;36.60;49.30;;;;;;4994845;28;20203;-74
2021/09/20 12:13:03;;;;;;;6.10;1.95;;;36.20;50.80;;;;;;4997079;28;20176;-75
2021/09/20 12:15:32;;;;;;;2.50;1.45;;;35.70;50.30;;;;;;4996915;28;20195;-75
2021/09/20 12:18:02;;;;;;;3.33;2.08;;;35.20;49.70;;;;;;4998411;28;20208;-75
2021/09/20 12:20:43;;;;;;;2.10;1.67;;;34.70;51.50;;;;;;4995816;28;20263;-74
2021/09/20 12:23:15;;;;;;;5.95;1.88;;;34.40;51.80;;;;;;4991848;28;20192;-74
2021/09/20 12:26:09;;;;;;;6.32;1.90;;;34.20;51.70;;;;;;4994584;28;20185;-74
2021/09/20 12:29:06;;;;;;;2.55;1.67;;;34.20;52.90;;;;;;4997649;28;20196;-74
2021/09/20 12:31:32;;;;;;;3.25;2.08;;;34.00;51.70;;;;;;4996109;28;20181;-74
2021/09/20 12:34:04;;;;;;;3.85;2.20;;;33.80;51.80;;;;;;4993345;28;20230;-76
2021/09/20 12:36:37;;;;;;;2.35;1.65;;;33.60;53.30;;;;;;4994723;28;20580;-73
2021/09/20 12:39:12;;;;;;;2.22;2.00;;;33.40;53.10;;;;;;5000203;28;20199;-73
2021/09/20 12:41:45;;;;;;;2.05;1.65;;;33.10;53.10;;;;;;4994165;28;20242;-74
2021/09/20 12:44:13;;;;;;;4.32;2.03;;;32.90;55.10;;;;;;4994772;28;20181;-73
2021/09/20 12:46:41;;;;;;;3.15;1.75;;;33.00;54.70;;;;;;4997354;28;20221;-75
2021/09/20 12:49:09;;;;;;;5.80;1.88;;;33.00;54.40;;;;;;4993125;28;20200;-74